sensor_id;sensor_type;location;lat;lon;timestamp;temperature;humidity
15815;DHT22;8008;50.024;8.172;2024-03-25T04:01:42;5.80;99.90
15815;DHT22;8008;50.024;8.172;2024-03-25T04:04:09;5.70;99.90
15815;DHT22;8008;50.024;8.172;2024-03-25T04:06:35;5.70;99.90
15815;DHT22;8008;50.024;8.172;2024-03-25T04:09:05;5.70;99.90
15815;DHT22;8008;50.024;8.172;2024-03-25T04:11:31;5.80;99.90
15815;DHT22;8008;50.024;8.172;2024-03-25T04:13:58;5.70;99.90
15815;DHT22;8008;50.024;8.172;2024-03-25T04:16:24;5.70;99.90
15815;DHT22;8008;50.024;8.172;2024-03-25T04:18:52;5.80;99.90
15815;DHT22;8008;50.024;8.172;2024-03-25T04:21:18;5.80;99.90
15815;DHT22;8008;50.024;8.172;2024-03-25T04:23:45;5.80;99.90
15815;DHT22;8008;50.024;8.172;2024-03-25T04:26:11;5.80;99.90
15815;DHT22;8008;50.024;8.172;2024-03-25T04:28:38;5.80;99.90
15815;DHT22;8008;50.024;8.172;2024-03-25T04:31:04;5.80;99.90
15815;DHT22;8008;50.024;8.172;2024-03-25T04:33:31;5.90;99.90
15815;DHT22;8008;50.024;8.172;2024-03-25T04:35:58;5.90;99.90
15815;DHT22;8008;50.024;8.172;2024-03-25T04:38:25;5.80;99.90
15815;DHT22;8008;50.024;8.172;2024-03-25T04:40:51;5.80;99.90
15815;DHT22;8008;50.024;8.172;2024-03-25T04:43:17;5.80;99.90
15815;DHT22;8008;50.024;8.172;2024-03-25T04:45:43;5.80;99.90
15815;DHT22;8008;50.024;8.172;2024-03-25T04:48:10;5.70;99.90
15815;DHT22;8008;50.024;8.172;2024-03-25T04:50:36;5.70;99.90
15815;DHT22;8008;50.024;8.172;2024-03-25T04:53:03;5.70;99.90
15815;DHT22;8008;50.024;8.172;2024-03-25T04:55:30;5.60;99.90
15815;DHT22;8008;50.024;8.172;2024-03-25T04:57:56;5.60;99.90
15815;DHT22;8008;50.024;8.172;2024-03-25T05:00:22;5.60;99.90
15815;DHT22;8008;50.024;8.172;2024-03-25T05:02:48;5.50;99.90
15815;DHT22;8008;50.024;8.172;2024-03-25T05:05:14;5.50;99.90
15815;DHT22;8008;50.024;8.172;2024-03-25T05:07:40;5.50;99.90
15815;DHT22;8008;50.024;8.172;2024-03-25T05:10:08;5.50;99.90
15815;DHT22;8008;50.024;8.172;2024-03-25T05:12:34;5.50;99.90
15815;DHT22;8008;50.024;8.172;2024-03-25T05:15:00;5.40;99.90
15815;DHT22;8008;50.024;8.172;2024-03-25T05:17:26;5.40;99.90
15815;DHT22;8008;50.024;8.172;2024-03-25T05:19:52;5.40;99.90
15815;DHT22;8008;50.024;8.172;2024-03-25T05:22:18;5.30;99.90
15815;DHT22;8008;50.024;8.172;2024-03-25T05:24:44;5.30;99.90
15815;DHT22;8008;50.024;8.172;2024-03-25T05:27:12;5.20;99.90
15815;DHT22;8008;50.024;8.172;2024-03-25T05:29:38;5.20;99.90
15815;DHT22;8008;50.024;8.172;2024-03-25T05:32:05;5.20;99.90
15815;DHT22;8008;50.024;8.172;2024-03-25T05:34:31;5.20;99.90
15815;DHT22;8008;50.024;8.172;2024-03-25T05:36:57;5.20;99.90
15815;DHT22;8008;50.024;8.172;2024-03-25T05:39:23;5.20;99.90
15815;DHT22;8008;50.024;8.172;2024-03-25T05:41:49;5.20;99.90
15815;DHT22;8008;50.024;8.172;2024-03-25T05:44:17;5.10;99.90
15815;DHT22;8008;50.024;8.172;2024-03-25T05:46:43;5.00;99.90
15815;DHT22;8008;50.024;8.172;2024-03-25T05:49:09;5.10;99.90
15815;DHT22;8008;50.024;8.172;2024-03-25T05:51:35;5.00;99.90
15815;DHT22;8008;50.024;8.172;2024-03-25T05:54:02;5.00;99.90
15815;DHT22;8008;50.024;8.172;2024-03-25T05:56:28;5.10;99.90
15815;DHT22;8008;50.024;8.172;2024-03-25T05:58:56;5.20;99.90
15815;DHT22;8008;50.024;8.172;2024-03-25T06:01:24;5.10;99.90
15815;DHT22;8008;50.024;8.172;2024-03-25T06:03:50;5.10;99.90
15815;DHT22;8008;50.024;8.172;2024-03-25T06:06:16;5.10;99.90
15815;DHT22;8008;50.024;8.172;2024-03-25T06:08:42;5.10;99.90
15815;DHT22;8008;50.024;8.172;2024-03-25T06:11:08;5.10;99.90
15815;DHT22;8008;50.024;8.172;2024-03-25T06:13:35;5.10;99.90
15815;DHT22;8008;50.024;8.172;2024-03-25T06:16:01;5.00;99.90
15815;DHT22;8008;50.024;8.172;2024-03-25T06:18:28;5.10;99.90
15815;DHT22;8008;50.024;8.172;2024-03-25T06:20:54;5.10;99.90
15815;DHT22;8008;50.024;8.172;2024-03-25T06:23:24;5.10;99.90
15815;DHT22;8008;50.024;8.172;2024-03-25T06:25:52;5.10;99.90
15815;DHT22;8008;50.024;8.172;2024-03-25T06:28:18;5.00;99.90
15815;DHT22;8008;50.024;8.172;2024-03-25T06:30:45;5.10;99.90
15815;DHT22;8008;50.024;8.172;2024-03-25T06:33:31;5.00;99.90
15815;DHT22;8008;50.024;8.172;2024-03-25T06:36:16;4.90;99.90
15815;DHT22;8008;50.024;8.172;2024-03-25T06:38:42;4.90;99.90
15815;DHT22;8008;50.024;8.172;2024-03-25T06:41:08;4.90;99.90
15815;DHT22;8008;50.024;8.172;2024-03-25T06:43:34;5.00;99.90
15815;DHT22;8008;50.024;8.172;2024-03-25T06:46:01;5.10;99.90
15815;DHT22;8008;50.024;8.172;2024-03-25T06:48:27;5.20;99.90
15815;DHT22;8008;50.024;8.172;2024-03-25T06:50:55;5.20;99.90
15815;DHT22;8008;50.024;8.172;2024-03-25T06:53:21;5.20;99.90
15815;DHT22;8008;50.024;8.172;2024-03-25T06:55:54;5.20;99.90
15815;DHT22;8008;50.024;8.172;2024-03-25T06:58:21;5.30;99.90
15815;DHT22;8008;50.024;8.172;2024-03-25T07:00:47;5.40;99.90
15815;DHT22;8008;50.024;8.172;2024-03-25T07:03:14;5.50;99.90
15815;DHT22;8008;50.024;8.172;2024-03-25T07:05:40;5.60;99.90
15815;DHT22;8008;50.024;8.172;2024-03-25T07:08:08;5.60;99.90
15815;DHT22;8008;50.024;8.172;2024-03-25T07:10:34;5.70;99.90
15815;DHT22;8008;50.024;8.172;2024-03-25T07:13:00;5.80;99.90
15815;DHT22;8008;50.024;8.172;2024-03-25T07:15:26;5.90;99.90
15815;DHT22;8008;50.024;8.172;2024-03-25T07:17:52;6.00;99.90
15815;DHT22;8008;50.024;8.172;2024-03-25T07:20:18;6.00;99.90
15815;DHT22;8008;50.024;8.172;2024-03-25T07:22:45;6.10;99.90
15815;DHT22;8008;50.024;8.172;2024-03-25T07:25:12;6.10;99.90
15815;DHT22;8008;50.024;8.172;2024-03-25T07:27:38;6.20;99.90
15815;DHT22;8008;50.024;8.172;2024-03-25T07:30:06;6.30;99.90
15815;DHT22;8008;50.024;8.172;2024-03-25T07:32:33;6.40;99.90
15815;DHT22;8008;50.024;8.172;2024-03-25T07:34:59;6.40;99.90
15815;DHT22;8008;50.024;8.172;2024-03-25T07:37:25;6.50;99.90
15815;DHT22;8008;50.024;8.172;2024-03-25T07:39:51;6.50;99.90
15815;DHT22;8008;50.024;8.172;2024-03-25T07:42:18;6.60;99.90
15815;DHT22;8008;50.024;8.172;2024-03-25T07:44:44;6.60;99.90
15815;DHT22;8008;50.024;8.172;2024-03-25T07:47:11;6.60;99.90
15815;DHT22;8008;50.024;8.172;2024-03-25T07:49:37;6.70;99.90
15815;DHT22;8008;50.024;8.172;2024-03-25T07:52:04;6.80;99.90
15815;DHT22;8008;50.024;8.172;2024-03-25T07:54:30;6.90;99.90
15815;DHT22;8008;50.024;8.172;2024-03-25T07:56:56;7.10;99.90
15815;DHT22;8008;50.024;8.172;2024-03-25T07:59:24;7.00;99.90
15815;DHT22;8008;50.024;8.172;2024-03-25T08:01:50;7.10;99.90
15815;DHT22;8008;50.024;8.172;2024-03-25T08:04:16;7.30;99.90
15815;DHT22;8008;50.024;8.172;2024-03-25T08:06:42;7.30;99.90
15815;DHT22;8008;50.024;8.172;2024-03-25T08:09:08;7.40;99.90
15815;DHT22;8008;50.024;8.172;2024-03-25T08:11:35;7.40;99.90
15815;DHT22;8008;50.024;8.172;2024-03-25T08:14:01;7.60;99.90
15815;DHT22;8008;50.024;8.172;2024-03-25T08:16:29;7.70;99.90
15815;DHT22;8008;50.024;8.172;2024-03-25T08:18:55;7.80;99.90
15815;DHT22;8008;50.024;8.172;2024-03-25T08:21:22;7.80;99.90
15815;DHT22;8008;50.024;8.172;2024-03-25T08:23:48;7.90;99.90
15815;DHT22;8008;50.024;8.172;2024-03-25T08:26:14;7.90;99.90
15815;DHT22;8008;50.024;8.172;2024-03-25T08:28:40;8.10;99.90
15815;DHT22;8008;50.024;8.172;2024-03-25T08:31:06;8.20;99.90
15815;DHT22;8008;50.024;8.172;2024-03-25T08:33:34;8.30;99.90
15815;DHT22;8008;50.024;8.172;2024-03-25T08:36:00;8.30;99.90
15815;DHT22;8008;50.024;8.172;2024-03-25T08:38:26;8.20;99.90
15815;DHT22;8008;50.024;8.172;2024-03-25T08:40:52;8.30;99.90
15815;DHT22;8008;50.024;8.172;2024-03-25T08:43:18;8.30;99.90
15815;DHT22;8008;50.024;8.172;2024-03-25T08:45:44;8.50;99.90
15815;DHT22;8008;50.024;8.172;2024-03-25T08:48:10;8.50;99.90
15815;DHT22;8008;50.024;8.172;2024-03-25T08:50:38;8.70;99.90
15815;DHT22;8008;50.024;8.172;2024-03-25T08:53:04;8.60;99.90
15815;DHT22;8008;50.024;8.172;2024-03-25T08:55:31;8.50;99.90
15815;DHT22;8008;50.024;8.172;2024-03-25T08:57:57;8.40;99.90
15815;DHT22;8008;50.024;8.172;2024-03-25T09:00:24;8.30;99.90
15815;DHT22;8008;50.024;8.172;2024-03-25T09:02:50;8.40;99.90
15815;DHT22;8008;50.024;8.172;2024-03-25T09:05:17;8.60;99.90
15815;DHT22;8008;50.024;8.172;2024-03-25T09:07:45;8.60;99.90
15815;DHT22;8008;50.024;8.172;2024-03-25T09:10:11;8.50;99.90
15815;DHT22;8008;50.024;8.172;2024-03-25T09:12:56;8.60;99.90
15815;DHT22;8008;50.024;8.172;2024-03-25T09:15:22;8.60;99.90
15815;DHT22;8008;50.024;8.172;2024-03-25T09:17:48;8.70;99.90
15815;DHT22;8008;50.024;8.172;2024-03-25T09:20:14;8.70;99.90
15815;DHT22;8008;50.024;8.172;2024-03-25T09:22:42;8.60;99.90
15815;DHT22;8008;50.024;8.172;2024-03-25T09:25:10;8.70;99.90
15815;DHT22;8008;50.024;8.172;2024-03-25T09:27:36;8.90;99.90
15815;DHT22;8008;50.024;8.172;2024-03-25T09:30:03;9.00;99.90
15815;DHT22;8008;50.024;8.172;2024-03-25T09:32:29;9.10;99.90
15815;DHT22;8008;50.024;8.172;2024-03-25T09:34:56;9.10;99.90
15815;DHT22;8008;50.024;8.172;2024-03-25T09:37:22;9.10;99.90
15815;DHT22;8008;50.024;8.172;2024-03-25T09:39:48;9.20;99.90
15815;DHT22;8008;50.024;8.172;2024-03-25T09:42:21;9.60;99.90
15815;DHT22;8008;50.024;8.172;2024-03-25T09:44:49;9.60;98.90
15815;DHT22;8008;50.024;8.172;2024-03-25T09:47:17;9.80;99.10
15815;DHT22;8008;50.024;8.172;2024-03-25T09:49:45;10.20;99.30
15815;DHT22;8008;50.024;8.172;2024-03-25T09:52:11;10.50;99.60
15815;DHT22;8008;50.024;8.172;2024-03-25T09:54:37;10.70;98.90
15815;DHT22;8008;50.024;8.172;2024-03-25T09:57:04;10.70;97.10
15815;DHT22;8008;50.024;8.172;2024-03-25T09:59:32;10.60;96.20
15815;DHT22;8008;50.024;8.172;2024-03-25T10:01:59;10.70;97.50
15815;DHT22;8008;50.024;8.172;2024-03-25T10:04:26;10.70;97.10
15815;DHT22;8008;50.024;8.172;2024-03-25T10:06:52;11.00;96.20
15815;DHT22;8008;50.024;8.172;2024-03-25T10:09:19;11.00;94.60
15815;DHT22;8008;50.024;8.172;2024-03-25T10:11:47;11.10;94.80
15815;DHT22;8008;50.024;8.172;2024-03-25T10:14:15;11.20;93.30
15815;DHT22;8008;50.024;8.172;2024-03-25T10:16:43;11.20;93.30
15815;DHT22;8008;50.024;8.172;2024-03-25T10:19:09;11.40;94.00
15815;DHT22;8008;50.024;8.172;2024-03-25T10:21:35;11.60;94.50
15815;DHT22;8008;50.024;8.172;2024-03-25T10:24:04;11.60;92.80
15815;DHT22;8008;50.024;8.172;2024-03-25T10:26:32;11.60;90.80
15815;DHT22;8008;50.024;8.172;2024-03-25T10:28:59;11.70;90.20
15815;DHT22;8008;50.024;8.172;2024-03-25T10:31:26;11.80;90.10
15815;DHT22;8008;50.024;8.172;2024-03-25T10:33:53;11.60;89.10
15815;DHT22;8008;50.024;8.172;2024-03-25T10:36:21;11.60;88.80
15815;DHT22;8008;50.024;8.172;2024-03-25T10:38:49;11.10;88.90
15815;DHT22;8008;50.024;8.172;2024-03-25T10:41:18;10.80;90.00
15815;DHT22;8008;50.024;8.172;2024-03-25T10:43:46;10.70;90.50
15815;DHT22;8008;50.024;8.172;2024-03-25T10:46:18;10.70;91.20
15815;DHT22;8008;50.024;8.172;2024-03-25T10:48:52;10.70;91.10
15815;DHT22;8008;50.024;8.172;2024-03-25T10:51:21;11.00;90.70
15815;DHT22;8008;50.024;8.172;2024-03-25T10:53:51;11.20;90.10
15815;DHT22;8008;50.024;8.172;2024-03-25T10:56:20;11.00;85.60
15815;DHT22;8008;50.024;8.172;2024-03-25T10:58:48;10.80;86.60
15815;DHT22;8008;50.024;8.172;2024-03-25T11:01:16;10.80;87.30
15815;DHT22;8008;50.024;8.172;2024-03-25T11:03:43;11.00;87.10
15815;DHT22;8008;50.024;8.172;2024-03-25T11:06:10;11.30;86.20
15815;DHT22;8008;50.024;8.172;2024-03-25T11:08:38;11.50;85.00
15815;DHT22;8008;50.024;8.172;2024-03-25T11:11:05;11.50;83.70
15815;DHT22;8008;50.024;8.172;2024-03-25T11:13:31;11.60;85.50
15815;DHT22;8008;50.024;8.172;2024-03-25T11:15:58;11.70;84.50
15815;DHT22;8008;50.024;8.172;2024-03-25T11:18:25;11.90;84.50
15815;DHT22;8008;50.024;8.172;2024-03-25T11:21:02;11.90;83.10
15815;DHT22;8008;50.024;8.172;2024-03-25T11:23:35;11.80;82.30
15815;DHT22;8008;50.024;8.172;2024-03-25T11:26:03;11.80;81.50
15815;DHT22;8008;50.024;8.172;2024-03-25T11:28:29;12.00;83.40
15815;DHT22;8008;50.024;8.172;2024-03-25T11:30:56;12.40;84.10
15815;DHT22;8008;50.024;8.172;2024-03-25T11:33:22;12.80;82.70
15815;DHT22;8008;50.024;8.172;2024-03-25T11:35:49;13.20;83.00
15815;DHT22;8008;50.024;8.172;2024-03-25T11:38:15;13.30;79.20
15815;DHT22;8008;50.024;8.172;2024-03-25T11:40:43;13.00;78.90
15815;DHT22;8008;50.024;8.172;2024-03-25T11:43:19;13.20;79.70
15815;DHT22;8008;50.024;8.172;2024-03-25T11:45:47;13.50;79.10
15815;DHT22;8008;50.024;8.172;2024-03-25T11:48:14;13.90;77.90
15815;DHT22;8008;50.024;8.172;2024-03-25T11:50:40;14.70;77.00
15815;DHT22;8008;50.024;8.172;2024-03-25T11:53:07;15.40;77.60
15815;DHT22;8008;50.024;8.172;2024-03-25T11:55:33;15.30;73.20
15815;DHT22;8008;50.024;8.172;2024-03-25T11:58:00;15.10;72.30
15815;DHT22;8008;50.024;8.172;2024-03-25T12:00:27;15.30;70.70
15815;DHT22;8008;50.024;8.172;2024-03-25T12:02:55;15.20;71.20
15815;DHT22;8008;50.024;8.172;2024-03-25T12:05:21;15.20;69.00
15815;DHT22;8008;50.024;8.172;2024-03-25T12:07:47;15.20;69.10
15815;DHT22;8008;50.024;8.172;2024-03-25T12:10:14;15.20;68.10
15815;DHT22;8008;50.024;8.172;2024-03-25T12:12:59;15.10;67.20
15815;DHT22;8008;50.024;8.172;2024-03-25T12:15:25;14.70;66.40
15815;DHT22;8008;50.024;8.172;2024-03-25T12:17:53;14.50;67.40
15815;DHT22;8008;50.024;8.172;2024-03-25T12:20:22;14.10;66.20
15815;DHT22;8008;50.024;8.172;2024-03-25T12:22:49;13.90;65.90
15815;DHT22;8008;50.024;8.172;2024-03-25T12:25:15;13.70;64.30
15815;DHT22;8008;50.024;8.172;2024-03-25T12:27:41;13.10;62.80
15815;DHT22;8008;50.024;8.172;2024-03-25T12:30:11;12.90;64.50
15815;DHT22;8008;50.024;8.172;2024-03-25T12:32:39;12.80;64.50
15815;DHT22;8008;50.024;8.172;2024-03-25T12:35:11;12.80;65.90
15815;DHT22;8008;50.024;8.172;2024-03-25T12:37:37;12.60;61.30
15815;DHT22;8008;50.024;8.172;2024-03-25T12:40:05;12.50;63.30
15815;DHT22;8008;50.024;8.172;2024-03-25T12:42:32;12.60;65.00
15815;DHT22;8008;50.024;8.172;2024-03-25T12:44:58;12.60;65.30
15815;DHT22;8008;50.024;8.172;2024-03-25T12:47:25;12.70;67.50
15815;DHT22;8008;50.024;8.172;2024-03-25T12:49:51;12.80;67.50
15815;DHT22;8008;50.024;8.172;2024-03-25T12:52:18;12.80;66.80
15815;DHT22;8008;50.024;8.172;2024-03-25T12:54:44;12.80;67.60
15815;DHT22;8008;50.024;8.172;2024-03-25T12:57:11;12.70;67.10
15815;DHT22;8008;50.024;8.172;2024-03-25T12:59:38;12.70;68.30
15815;DHT22;8008;50.024;8.172;2024-03-25T13:02:04;12.70;67.80
15815;DHT22;8008;50.024;8.172;2024-03-25T13:04:30;12.80;69.00
15815;DHT22;8008;50.024;8.172;2024-03-25T13:06:56;12.80;67.50
15815;DHT22;8008;50.024;8.172;2024-03-25T13:09:24;12.80;67.70
15815;DHT22;8008;50.024;8.172;2024-03-25T13:11:50;12.80;67.80
15815;DHT22;8008;50.024;8.172;2024-03-25T13:14:16;12.90;68.00
15815;DHT22;8008;50.024;8.172;2024-03-25T13:16:42;12.80;65.60
15815;DHT22;8008;50.024;8.172;2024-03-25T13:19:08;12.70;65.80
15815;DHT22;8008;50.024;8.172;2024-03-25T13:21:34;12.90;67.70
15815;DHT22;8008;50.024;8.172;2024-03-25T13:24:01;13.00;67.30
15815;DHT22;8008;50.024;8.172;2024-03-25T13:26:28;13.10;67.70
15815;DHT22;8008;50.024;8.172;2024-03-25T13:28:54;13.20;68.50
15815;DHT22;8008;50.024;8.172;2024-03-25T13:31:20;13.30;67.00
15815;DHT22;8008;50.024;8.172;2024-03-25T13:33:46;13.30;66.90
15815;DHT22;8008;50.024;8.172;2024-03-25T13:36:13;13.30;67.40
15815;DHT22;8008;50.024;8.172;2024-03-25T13:38:39;13.10;66.00
15815;DHT22;8008;50.024;8.172;2024-03-25T13:41:05;13.00;66.80
15815;DHT22;8008;50.024;8.172;2024-03-25T13:43:33;13.10;68.40
15815;DHT22;8008;50.024;8.172;2024-03-25T13:45:59;13.20;68.00
15815;DHT22;8008;50.024;8.172;2024-03-25T13:48:25;13.20;65.00
15815;DHT22;8008;50.024;8.172;2024-03-25T13:50:53;13.30;66.50
15815;DHT22;8008;50.024;8.172;2024-03-25T13:53:20;13.30;64.70
15815;DHT22;8008;50.024;8.172;2024-03-25T13:55:46;13.50;66.90
15815;DHT22;8008;50.024;8.172;2024-03-25T13:58:12;13.70;65.10
15815;DHT22;8008;50.024;8.172;2024-03-25T14:00:40;14.20;68.50
15815;DHT22;8008;50.024;8.172;2024-03-25T14:03:06;15.80;66.80
15815;DHT22;8008;50.024;8.172;2024-03-25T14:05:32;18.10;66.30
15815;DHT22;8008;50.024;8.172;2024-03-25T14:07:59;20.30;64.20
15815;DHT22;8008;50.024;8.172;2024-03-25T14:10:25;22.70;60.30
15815;DHT22;8008;50.024;8.172;2024-03-25T14:12:51;23.60;54.60
15815;DHT22;8008;50.024;8.172;2024-03-25T14:15:17;24.60;53.50
15815;DHT22;8008;50.024;8.172;2024-03-25T14:17:44;25.60;51.80
15815;DHT22;8008;50.024;8.172;2024-03-25T14:20:11;26.60;50.00
15815;DHT22;8008;50.024;8.172;2024-03-25T14:22:37;27.60;49.00
15815;DHT22;8008;50.024;8.172;2024-03-25T14:25:04;27.50;45.40
15815;DHT22;8008;50.024;8.172;2024-03-25T14:27:30;28.00;43.70
15815;DHT22;8008;50.024;8.172;2024-03-25T14:29:56;28.10;43.30
15815;DHT22;8008;50.024;8.172;2024-03-25T14:32:23;28.90;43.40
15815;DHT22;8008;50.024;8.172;2024-03-25T14:34:51;29.00;40.70
15815;DHT22;8008;50.024;8.172;2024-03-25T14:37:17;29.60;40.50
15815;DHT22;8008;50.024;8.172;2024-03-25T14:39:43;29.40;40.00
15815;DHT22;8008;50.024;8.172;2024-03-25T14:42:09;29.50;39.30
15815;DHT22;8008;50.024;8.172;2024-03-25T14:44:36;28.60;38.30
15815;DHT22;8008;50.024;8.172;2024-03-25T14:47:02;28.40;38.20
15815;DHT22;8008;50.024;8.172;2024-03-25T14:49:28;28.80;38.70
15815;DHT22;8008;50.024;8.172;2024-03-25T14:51:56;29.00;37.70
15815;DHT22;8008;50.024;8.172;2024-03-25T14:54:22;29.10;38.30
15815;DHT22;8008;50.024;8.172;2024-03-25T14:56:49;29.00;37.60
15815;DHT22;8008;50.024;8.172;2024-03-25T14:59:15;28.20;37.90
15815;DHT22;8008;50.024;8.172;2024-03-25T15:01:41;28.10;37.70
15815;DHT22;8008;50.024;8.172;2024-03-25T15:04:07;27.60;37.30
15815;DHT22;8008;50.024;8.172;2024-03-25T15:06:34;26.30;36.90
15815;DHT22;8008;50.024;8.172;2024-03-25T15:09:02;24.70;38.50
15815;DHT22;8008;50.024;8.172;2024-03-25T15:11:29;23.50;38.60
15815;DHT22;8008;50.024;8.172;2024-03-25T15:13:55;22.30;38.40
15815;DHT22;8008;50.024;8.172;2024-03-25T15:16:21;21.60;39.00
15815;DHT22;8008;50.024;8.172;2024-03-25T15:18:47;21.20;40.00
15815;DHT22;8008;50.024;8.172;2024-03-25T15:21:13;20.90;41.70
15815;DHT22;8008;50.024;8.172;2024-03-25T15:23:39;21.60;41.50
15815;DHT22;8008;50.024;8.172;2024-03-25T15:26:07;22.80;40.70
15815;DHT22;8008;50.024;8.172;2024-03-25T15:28:33;23.50;40.40
15815;DHT22;8008;50.024;8.172;2024-03-25T15:30:59;23.20;40.10
15815;DHT22;8008;50.024;8.172;2024-03-25T15:33:25;22.00;40.40
15815;DHT22;8008;50.024;8.172;2024-03-25T15:35:51;20.90;41.50
15815;DHT22;8008;50.024;8.172;2024-03-25T15:38:17;20.20;41.10
15815;DHT22;8008;50.024;8.172;2024-03-25T15:40:44;19.20;41.00
15815;DHT22;8008;50.024;8.172;2024-03-25T15:43:12;18.50;41.60
15815;DHT22;8008;50.024;8.172;2024-03-25T15:45:38;17.90;41.50
15815;DHT22;8008;50.024;8.172;2024-03-25T15:48:04;17.40;42.10
15815;DHT22;8008;50.024;8.172;2024-03-25T15:50:31;17.00;42.60
15815;DHT22;8008;50.024;8.172;2024-03-25T15:52:57;16.70;42.10
15815;DHT22;8008;50.024;8.172;2024-03-25T15:55:23;16.20;42.40
15815;DHT22;8008;50.024;8.172;2024-03-25T15:57:49;15.80;44.00
15815;DHT22;8008;50.024;8.172;2024-03-25T16:00:17;15.60;43.20
15815;DHT22;8008;50.024;8.172;2024-03-25T16:02:44;15.30;42.90
15815;DHT22;8008;50.024;8.172;2024-03-25T16:05:10;14.90;43.30
15815;DHT22;8008;50.024;8.172;2024-03-25T16:07:36;14.80;44.00
15815;DHT22;8008;50.024;8.172;2024-03-25T16:10:02;14.60;43.60
15815;DHT22;8008;50.024;8.172;2024-03-25T16:12:29;14.40;44.30
15815;DHT22;8008;50.024;8.172;2024-03-25T16:14:55;14.20;43.10
15815;DHT22;8008;50.024;8.172;2024-03-25T16:17:22;14.30;43.90
15815;DHT22;8008;50.024;8.172;2024-03-25T16:19:49;14.30;42.80
15815;DHT22;8008;50.024;8.172;2024-03-25T16:22:15;14.30;43.70
15815;DHT22;8008;50.024;8.172;2024-03-25T16:24:42;14.30;44.60
15815;DHT22;8008;50.024;8.172;2024-03-25T16:27:08;14.40;43.80
15815;DHT22;8008;50.024;8.172;2024-03-25T16:29:34;14.40;44.80
15815;DHT22;8008;50.024;8.172;2024-03-25T16:32:00;14.30;44.60
15815;DHT22;8008;50.024;8.172;2024-03-25T16:34:27;14.20;44.20
15815;DHT22;8008;50.024;8.172;2024-03-25T16:36:53;14.10;44.70
15815;DHT22;8008;50.024;8.172;2024-03-25T16:39:19;14.00;44.30
15815;DHT22;8008;50.024;8.172;2024-03-25T16:41:46;13.90;44.50
15815;DHT22;8008;50.024;8.172;2024-03-25T16:44:12;13.90;44.20
15815;DHT22;8008;50.024;8.172;2024-03-25T16:46:38;13.90;44.40
15815;DHT22;8008;50.024;8.172;2024-03-25T16:49:04;13.80;45.40
15815;DHT22;8008;50.024;8.172;2024-03-25T16:51:32;13.80;45.10
15815;DHT22;8008;50.024;8.172;2024-03-25T16:53:58;13.80;45.60
15815;DHT22;8008;50.024;8.172;2024-03-25T16:56:24;13.70;45.50
15815;DHT22;8008;50.024;8.172;2024-03-25T16:58:50;13.60;45.30
15815;DHT22;8008;50.024;8.172;2024-03-25T17:01:16;13.60;45.30
15815;DHT22;8008;50.024;8.172;2024-03-25T17:03:42;13.50;45.40
15815;DHT22;8008;50.024;8.172;2024-03-25T17:06:09;13.50;47.10
15815;DHT22;8008;50.024;8.172;2024-03-25T17:08:36;13.40;47.50
15815;DHT22;8008;50.024;8.172;2024-03-25T17:11:03;13.30;46.90
15815;DHT22;8008;50.024;8.172;2024-03-25T17:13:29;13.30;46.00
15815;DHT22;8008;50.024;8.172;2024-03-25T17:15:55;13.20;46.70
15815;DHT22;8008;50.024;8.172;2024-03-25T17:18:21;13.10;46.60
15815;DHT22;8008;50.024;8.172;2024-03-25T17:20:47;13.10;47.20
15815;DHT22;8008;50.024;8.172;2024-03-25T17:23:14;13.00;46.50
15815;DHT22;8008;50.024;8.172;2024-03-25T17:25:41;12.90;46.50
15815;DHT22;8008;50.024;8.172;2024-03-25T17:28:07;12.90;46.90
15815;DHT22;8008;50.024;8.172;2024-03-25T17:30:35;12.80;47.20
15815;DHT22;8008;50.024;8.172;2024-03-25T17:33:01;12.80;46.80
15815;DHT22;8008;50.024;8.172;2024-03-25T17:35:28;12.80;47.30
15815;DHT22;8008;50.024;8.172;2024-03-25T17:37:54;12.70;47.30
15815;DHT22;8008;50.024;8.172;2024-03-25T17:40:20;12.70;47.60
15815;DHT22;8008;50.024;8.172;2024-03-25T17:42:47;12.50;47.50
15815;DHT22;8008;50.024;8.172;2024-03-25T17:45:14;12.50;47.60
15815;DHT22;8008;50.024;8.172;2024-03-25T17:47:40;12.40;47.50
15815;DHT22;8008;50.024;8.172;2024-03-25T17:50:06;12.30;48.10
15815;DHT22;8008;50.024;8.172;2024-03-25T17:52:33;12.20;48.20
15815;DHT22;8008;50.024;8.172;2024-03-25T17:54:59;12.20;48.20
15815;DHT22;8008;50.024;8.172;2024-03-25T17:57:25;12.10;48.70
15815;DHT22;8008;50.024;8.172;2024-03-25T17:59:52;12.10;49.30
15815;DHT22;8008;50.024;8.172;2024-03-25T18:02:18;12.00;48.90
15815;DHT22;8008;50.024;8.172;2024-03-25T18:04:45;12.00;49.10
15815;DHT22;8008;50.024;8.172;2024-03-25T18:07:11;12.00;49.70
15815;DHT22;8008;50.024;8.172;2024-03-25T18:09:37;11.90;49.10
15815;DHT22;8008;50.024;8.172;2024-03-25T18:12:03;11.80;49.10
15815;DHT22;8008;50.024;8.172;2024-03-25T18:14:30;11.80;49.20
15815;DHT22;8008;50.024;8.172;2024-03-25T18:16:57;11.80;49.30
15815;DHT22;8008;50.024;8.172;2024-03-25T18:19:23;11.80;49.30
15815;DHT22;8008;50.024;8.172;2024-03-25T18:21:49;11.70;49.20
15815;DHT22;8008;50.024;8.172;2024-03-25T18:24:15;11.70;49.30
15815;DHT22;8008;50.024;8.172;2024-03-25T18:26:42;11.60;49.00
15815;DHT22;8008;50.024;8.172;2024-03-25T18:29:08;11.60;49.20
15815;DHT22;8008;50.024;8.172;2024-03-25T18:31:34;11.50;49.30
15815;DHT22;8008;50.024;8.172;2024-03-25T18:34:01;11.50;49.40
15815;DHT22;8008;50.024;8.172;2024-03-25T18:36:28;11.40;49.60
15815;DHT22;8008;50.024;8.172;2024-03-25T18:38:54;11.40;50.20
15815;DHT22;8008;50.024;8.172;2024-03-25T18:41:20;11.30;50.70
15815;DHT22;8008;50.024;8.172;2024-03-25T18:43:46;11.30;50.80
15815;DHT22;8008;50.024;8.172;2024-03-25T18:46:12;11.20;51.70
15815;DHT22;8008;50.024;8.172;2024-03-25T18:48:38;11.20;51.30
15815;DHT22;8008;50.024;8.172;2024-03-25T18:51:06;11.20;51.20
15815;DHT22;8008;50.024;8.172;2024-03-25T18:53:32;11.10;52.10
15815;DHT22;8008;50.024;8.172;2024-03-25T18:55:58;11.10;51.20
15815;DHT22;8008;50.024;8.172;2024-03-25T18:58:24;11.00;51.20
15815;DHT22;8008;50.024;8.172;2024-03-25T19:00:50;11.00;51.90
15815;DHT22;8008;50.024;8.172;2024-03-25T19:03:16;11.00;51.70
15815;DHT22;8008;50.024;8.172;2024-03-25T19:05:42;10.90;51.80
15815;DHT22;8008;50.024;8.172;2024-03-25T19:08:10;10.90;51.90
15815;DHT22;8008;50.024;8.172;2024-03-25T19:10:36;10.80;52.50
15815;DHT22;8008;50.024;8.172;2024-03-25T19:13:02;10.70;52.10
15815;DHT22;8008;50.024;8.172;2024-03-25T19:15:28;10.70;52.40
15815;DHT22;8008;50.024;8.172;2024-03-25T19:17:54;10.70;52.60
15815;DHT22;8008;50.024;8.172;2024-03-25T19:20:20;10.60;52.70
15815;DHT22;8008;50.024;8.172;2024-03-25T19:22:46;10.60;52.70
15815;DHT22;8008;50.024;8.172;2024-03-25T19:25:14;10.50;52.90
15815;DHT22;8008;50.024;8.172;2024-03-25T19:27:40;10.50;52.90
15815;DHT22;8008;50.024;8.172;2024-03-25T19:30:08;10.40;53.20
15815;DHT22;8008;50.024;8.172;2024-03-25T19:32:34;10.30;53.40
15815;DHT22;8008;50.024;8.172;2024-03-25T19:35:00;10.30;53.70
15815;DHT22;8008;50.024;8.172;2024-03-25T19:37:26;10.30;53.80
15815;DHT22;8008;50.024;8.172;2024-03-25T19:39:52;10.30;54.20
15815;DHT22;8008;50.024;8.172;2024-03-25T19:42:19;10.30;54.70
15815;DHT22;8008;50.024;8.172;2024-03-25T19:44:46;10.30;55.00
15815;DHT22;8008;50.024;8.172;2024-03-25T19:47:12;10.20;55.60
15815;DHT22;8008;50.024;8.172;2024-03-25T19:49:38;10.20;55.40